createdAt,value
2022-07-31T00:00:49.433Z,3.33
2022-07-31T00:05:38.748Z,3.10
2022-07-31T00:10:30.647Z,3.05
2022-07-31T00:15:16.828Z,2.95
2022-07-31T00:20:02.702Z,2.80
2022-07-31T00:24:48.819Z,3.00
2022-07-31T00:29:37.326Z,3.00
2022-07-31T00:34:23.304Z,2.70
2022-07-31T00:39:10.563Z,2.85
2022-07-31T00:43:56.867Z,2.75
2022-07-31T00:48:45.351Z,2.60
2022-07-31T00:53:31.254Z,2.80
2022-07-31T00:58:17.196Z,2.70
2022-07-31T01:03:02.809Z,2.60
2022-07-31T01:07:54.170Z,3.20
2022-07-31T01:12:53.993Z,2.97
2022-07-31T01:17:42.060Z,3.08
2022-07-31T01:23:02.216Z,3.25
2022-07-31T01:28:05.015Z,3.10
2022-07-31T01:32:55.354Z,3.40
2022-07-31T01:37:47.325Z,3.15
2022-07-31T01:42:35.706Z,2.92
2022-07-31T01:47:24.856Z,3.72
2022-07-31T01:52:15.652Z,3.20
2022-07-31T01:57:02.747Z,3.22
2022-07-31T02:01:50.712Z,3.60
2022-07-31T02:06:38.824Z,3.30
2022-07-31T02:11:30.638Z,3.40
2022-07-31T02:16:20.012Z,3.00
2022-07-31T02:21:06.328Z,3.17
2022-07-31T02:25:54.419Z,3.13
2022-07-31T02:30:46.489Z,3.20
2022-07-31T02:35:33.851Z,2.97
2022-07-31T02:40:21.043Z,4.65
2022-07-31T02:45:07.441Z,4.50
2022-07-31T02:49:58.436Z,3.92
2022-07-31T02:54:45.095Z,4.20
2022-07-31T02:59:31.340Z,3.78
2022-07-31T03:04:17.212Z,3.78
2022-07-31T03:09:06.431Z,3.38
2022-07-31T03:13:55.255Z,3.45
2022-07-31T03:18:42.902Z,3.80
2022-07-31T03:23:36.593Z,3.88
2022-07-31T03:28:25.408Z,6.40
2022-07-31T03:33:11.209Z,6.57
2022-07-31T03:37:57.442Z,7.30
2022-07-31T03:42:43.663Z,6.72
2022-07-31T03:47:35.587Z,7.47
2022-07-31T03:52:21.788Z,6.50
2022-07-31T03:57:08.950Z,6.25
2022-07-31T04:01:58.233Z,6.05
2022-07-31T04:06:47.587Z,5.80
2022-07-31T04:11:33.495Z,5.32
2022-07-31T04:16:19.739Z,5.55
2022-07-31T04:21:05.633Z,5.13
2022-07-31T04:25:54.378Z,5.20
2022-07-31T04:30:40.729Z,4.18
2022-07-31T04:35:29.898Z,5.10
2022-07-31T04:40:16.401Z,5.28
2022-07-31T04:45:05.114Z,6.22
2022-07-31T04:49:51.141Z,6.80
2022-07-31T04:54:37.884Z,7.80
2022-07-31T05:00:00.643Z,8.65
2022-07-31T05:04:35.193Z,8.45
2022-07-31T05:09:25.526Z,10.23
2022-07-31T05:14:17.627Z,7.43
2022-07-31T05:19:04.334Z,8.65
2022-07-31T05:23:54.601Z,11.02
2022-07-31T05:28:41.733Z,11.30
2022-07-31T05:33:29.118Z,8.77
2022-07-31T05:38:14.895Z,7.93
2022-07-31T05:43:04.237Z,8.98
2022-07-31T05:47:50.066Z,7.45
2022-07-31T05:52:36.073Z,6.93
2022-07-31T05:57:33.131Z,7.25
2022-07-31T06:02:22.751Z,5.10
2022-07-31T06:07:08.650Z,5.10
2022-07-31T06:11:54.933Z,5.60
2022-07-31T06:16:40.743Z,5.20
2022-07-31T06:21:30.922Z,4.90
2022-07-31T06:26:17.060Z,4.78
2022-07-31T06:31:04.594Z,3.88
2022-07-31T06:35:50.380Z,4.40
2022-07-31T06:40:39.683Z,4.32
2022-07-31T06:45:48.906Z,4.72
2022-07-31T06:50:32.152Z,3.78
2022-07-31T06:55:18.580Z,3.78
2022-07-31T07:00:15.168Z,3.15
2022-07-31T07:05:07.071Z,2.70
2022-07-31T07:09:52.880Z,2.95
2022-07-31T07:14:38.945Z,2.85
2022-07-31T07:19:27.283Z,2.78
2022-07-31T07:24:13.327Z,2.95
2022-07-31T07:29:02.938Z,2.58
2022-07-31T07:33:49.323Z,2.70
2022-07-31T07:38:38.106Z,2.45
2022-07-31T07:43:25.508Z,2.08
2022-07-31T07:48:11.708Z,2.20
2022-07-31T07:52:58.094Z,2.20
2022-07-31T07:57:47.907Z,1.70
2022-07-31T08:02:33.331Z,1.80
2022-07-31T08:07:18.546Z,1.88
2022-07-31T08:12:04.628Z,2.00
2022-07-31T08:16:52.567Z,1.67
2022-07-31T08:21:39.458Z,1.65
2022-07-31T08:26:27.306Z,1.80
2022-07-31T08:31:13.635Z,1.63
2022-07-31T08:36:01.719Z,1.60
2022-07-31T08:40:47.819Z,1.75
2022-07-31T08:45:37.479Z,1.73
2022-07-31T08:50:25.952Z,2.00
2022-07-31T08:55:24.859Z,1.75
2022-07-31T09:00:22.983Z,1.80
2022-07-31T09:05:09.031Z,1.73
2022-07-31T09:09:54.420Z,1.63
2022-07-31T09:14:42.343Z,1.63
2022-07-31T09:19:53.147Z,1.95
2022-07-31T09:24:40.023Z,1.80
2022-07-31T09:29:36.954Z,1.83
2022-07-31T09:34:31.759Z,3.30
2022-07-31T09:39:27.224Z,1.90
2022-07-31T09:44:13.441Z,1.80
2022-07-31T09:49:01.052Z,1.80
2022-07-31T09:53:52.093Z,1.60
2022-07-31T09:58:37.199Z,2.13
2022-07-31T10:03:23.332Z,1.25
2022-07-31T10:08:08.837Z,1.90
2022-07-31T10:12:58.463Z,1.80
2022-07-31T10:17:47.425Z,1.70
2022-07-31T10:22:44.055Z,2.08
2022-07-31T10:27:29.389Z,1.50
2022-07-31T10:32:17.836Z,4.03
2022-07-31T10:37:11.271Z,1.75
2022-07-31T10:42:06.496Z,1.60
2022-07-31T10:46:52.145Z,1.60
2022-07-31T10:51:49.728Z,1.70
2022-07-31T10:56:43.986Z,1.70
2022-07-31T11:01:29.399Z,2.03
2022-07-31T11:06:15.394Z,1.70
2022-07-31T11:11:03.692Z,1.70
2022-07-31T11:15:50.857Z,2.13
2022-07-31T11:20:36.231Z,1.55
2022-07-31T11:25:21.864Z,1.95
2022-07-31T11:30:13.712Z,1.90
2022-07-31T11:35:00.339Z,1.40
2022-07-31T11:39:51.407Z,1.40
2022-07-31T11:44:36.917Z,1.70
2022-07-31T11:49:39.131Z,1.77
2022-07-31T11:54:33.994Z,1.58
2022-07-31T11:59:45.895Z,1.70
2022-07-31T12:04:28.570Z,1.80
2022-07-31T12:10:00.753Z,1.85
2022-07-31T12:14:19.299Z,2.00
2022-07-31T12:19:04.340Z,1.70
2022-07-31T12:23:54.561Z,1.92
2022-07-31T12:28:39.764Z,1.80
2022-07-31T12:33:25.128Z,1.77
2022-07-31T12:38:37.726Z,1.73
2022-07-31T12:43:18.775Z,1.85
2022-07-31T12:48:04.975Z,1.70
2022-07-31T12:52:50.626Z,1.60
2022-07-31T12:57:35.830Z,1.40
2022-07-31T13:02:29.972Z,1.55
2022-07-31T13:07:15.142Z,2.05
2022-07-31T13:12:00.608Z,1.55
2022-07-31T13:16:45.660Z,1.45
2022-07-31T13:21:47.917Z,1.77
2022-07-31T13:26:34.297Z,1.50
2022-07-31T13:31:19.563Z,1.55
2022-07-31T13:36:05.972Z,1.52
2022-07-31T13:41:05.990Z,1.50
2022-07-31T13:45:51.707Z,1.60
2022-07-31T13:50:37.473Z,1.60
2022-07-31T13:55:22.946Z,1.45
2022-07-31T14:00:13.101Z,1.50
2022-07-31T14:04:58.739Z,1.30
2022-07-31T14:09:51.458Z,1.27
2022-07-31T14:14:40.623Z,1.55
2022-07-31T14:19:28.308Z,1.88
2022-07-31T14:24:14.169Z,1.70
2022-07-31T14:28:59.210Z,1.50
2022-07-31T14:33:44.554Z,1.50
2022-07-31T14:38:32.270Z,1.33
2022-07-31T14:43:17.768Z,1.50
2022-07-31T14:48:02.815Z,1.50
2022-07-31T14:52:48.155Z,1.50
2022-07-31T14:57:35.868Z,2.08
2022-07-31T15:02:22.815Z,1.98
2022-07-31T15:07:33.807Z,2.10
2022-07-31T15:12:17.104Z,2.10
2022-07-31T15:17:05.127Z,2.10
2022-07-31T15:22:16.334Z,2.25
2022-07-31T15:26:56.147Z,2.22
2022-07-31T15:31:41.398Z,2.35
2022-07-31T15:36:29.745Z,2.72
2022-07-31T15:41:18.916Z,2.80
2022-07-31T15:46:09.304Z,2.90
2022-07-31T15:50:54.383Z,3.00
2022-07-31T15:55:42.761Z,3.00
2022-07-31T16:00:27.970Z,2.80
2022-07-31T16:05:35.726Z,2.63
2022-07-31T16:10:19.696Z,2.90
2022-07-31T16:15:08.650Z,2.85
2022-07-31T16:19:57.225Z,3.30
2022-07-31T16:24:42.340Z,3.10
2022-07-31T16:30:01.033Z,3.53
2022-07-31T16:34:36.575Z,3.17
2022-07-31T16:39:22.491Z,2.95
2022-07-31T16:44:08.281Z,3.58
2022-07-31T16:48:53.516Z,3.75
2022-07-31T16:54:13.100Z,3.30
2022-07-31T16:58:52.601Z,3.95
2022-07-31T17:04:01.368Z,3.63
2022-07-31T17:08:50.334Z,4.40
2022-07-31T17:13:35.498Z,3.95
2022-07-31T17:18:25.344Z,4.15
2022-07-31T17:23:10.536Z,4.30
2022-07-31T17:27:58.516Z,4.18
2022-07-31T17:32:44.317Z,7.40
2022-07-31T17:37:30.925Z,4.85
2022-07-31T17:42:18.143Z,4.72
2022-07-31T17:47:10.441Z,4.70
2022-07-31T17:51:59.137Z,5.53
2022-07-31T17:56:45.637Z,5.05
2022-07-31T18:06:25.277Z,5.47
2022-07-31T18:11:10.306Z,6.07
2022-07-31T18:15:55.694Z,6.10
2022-07-31T18:20:41.181Z,6.15
2022-07-31T18:25:29.146Z,6.55
2022-07-31T18:30:15.110Z,6.75
2022-07-31T18:35:01.974Z,6.90
2022-07-31T18:39:49.519Z,6.68
2022-07-31T18:44:37.678Z,7.20
2022-07-31T18:51:02.116Z,7.65
2022-07-31T18:54:28.966Z,7.05
2022-07-31T18:59:14.147Z,7.53
2022-07-31T19:04:02.133Z,7.80
2022-07-31T19:08:49.689Z,6.80
2022-07-31T19:13:35.200Z,7.95
2022-07-31T19:18:24.490Z,6.70
2022-07-31T19:23:17.224Z,7.03
2022-07-31T19:28:02.283Z,9.02
2022-07-31T19:32:47.615Z,6.78
2022-07-31T19:37:32.778Z,6.85
2022-07-31T19:42:20.742Z,6.63
2022-07-31T19:47:06.446Z,6.95
2022-07-31T19:51:51.786Z,6.70
2022-07-31T19:56:37.125Z,6.82
2022-07-31T20:01:26.483Z,6.93
2022-07-31T20:06:11.832Z,6.35
2022-07-31T20:10:57.817Z,6.32
2022-07-31T20:15:51.992Z,6.57
2022-07-31T20:20:41.746Z,7.22
2022-07-31T20:25:26.855Z,6.68
2022-07-31T20:30:14.035Z,6.80
2022-07-31T20:34:59.076Z,7.32
2022-07-31T20:39:47.120Z,7.45
2022-07-31T20:44:32.318Z,7.63
2022-07-31T20:49:19.875Z,6.68
2022-07-31T20:54:34.696Z,6.38
2022-07-31T20:59:22.700Z,6.30
2022-07-31T21:04:09.909Z,6.68
2022-07-31T21:08:55.142Z,6.10
2022-07-31T21:13:42.059Z,6.05
2022-07-31T21:18:34.263Z,6.30
2022-07-31T21:23:20.717Z,6.03
2022-07-31T21:28:06.971Z,6.38
2022-07-31T21:32:53.294Z,5.60
2022-07-31T21:37:41.302Z,5.95
2022-07-31T21:42:32.574Z,6.20
2022-07-31T21:47:27.251Z,6.30
2022-07-31T21:52:32.617Z,6.05
2022-07-31T21:57:20.351Z,6.13
2022-07-31T22:02:05.843Z,7.07
2022-07-31T22:07:03.579Z,5.72
2022-07-31T22:11:55.041Z,6.45
2022-07-31T22:16:49.803Z,6.90
2022-07-31T22:21:37.245Z,8.50
2022-07-31T22:26:23.714Z,7.50
2022-07-31T22:31:10.622Z,7.43
2022-07-31T22:36:03.438Z,7.43
2022-07-31T22:40:49.417Z,7.72
2022-07-31T22:45:35.725Z,8.07
2022-07-31T22:50:22.558Z,7.57
2022-07-31T22:55:12.591Z,7.32
2022-07-31T22:59:58.168Z,7.70
2022-07-31T23:04:44.334Z,8.13
2022-07-31T23:09:29.831Z,8.00
2022-07-31T23:14:18.232Z,8.13
2022-07-31T23:19:04.303Z,8.23
2022-07-31T23:23:50.993Z,8.20
2022-07-31T23:28:37.063Z,8.38
2022-07-31T23:33:25.955Z,8.48
2022-07-31T23:38:12.033Z,8.18
2022-07-31T23:42:58.178Z,8.25
2022-07-31T23:47:46.877Z,7.90
2022-07-31T23:52:36.037Z,8.38
2022-07-31T23:57:21.879Z,8.57
